createdAt,value
2018-04-27T00:00:32.647Z,7.90
2018-04-27T00:10:40.191Z,7.80
2018-04-27T00:15:43.986Z,7.80
2018-04-27T00:20:47.063Z,7.70
2018-04-27T00:30:54.972Z,7.50
2018-04-27T00:35:59.572Z,7.40
2018-04-27T00:41:03.431Z,7.40
2018-04-27T00:46:07.492Z,7.30
2018-04-27T00:51:11.361Z,7.30
2018-04-27T00:56:14.851Z,7.20
2018-04-27T01:06:22.442Z,7.00
2018-04-27T01:11:25.532Z,7.00
2018-04-27T01:21:34.182Z,6.90
2018-04-27T01:26:38.411Z,6.80
2018-04-27T01:36:47.314Z,6.70
2018-04-27T01:41:51.531Z,6.60
2018-04-27T01:46:54.620Z,6.50
2018-04-27T01:51:58.494Z,6.40
2018-04-27T01:57:02.324Z,6.40
2018-04-27T02:02:06.167Z,6.40
2018-04-27T02:07:09.244Z,6.30
2018-04-27T02:12:12.335Z,6.30
2018-04-27T02:17:16.194Z,6.30
2018-04-27T02:22:19.269Z,6.20
2018-04-27T02:27:22.758Z,6.10
2018-04-27T02:32:26.976Z,6.20
2018-04-27T02:42:35.728Z,6.30
2018-04-27T03:02:53.295Z,6.50
2018-04-27T03:07:57.148Z,6.50
2018-04-27T03:13:00.619Z,6.70
2018-04-27T03:18:04.091Z,6.70
2018-04-27T03:23:07.951Z,6.70
2018-04-27T03:28:11.026Z,6.70
2018-04-27T03:33:14.099Z,6.70
2018-04-27T03:38:18.313Z,6.60
2018-04-27T03:43:24.250Z,6.50
2018-04-27T03:53:32.573Z,6.40
2018-04-27T04:03:57.706Z,6.50
2018-04-27T04:09:01.193Z,6.40
2018-04-27T04:14:05.059Z,6.20
2018-04-27T04:19:08.144Z,6.20
2018-04-27T04:24:11.981Z,6.10
2018-04-27T04:29:15.827Z,6.20
2018-04-27T04:34:18.953Z,6.10
2018-04-27T04:39:22.811Z,6.20
2018-04-27T04:44:25.879Z,6.30
2018-04-27T04:49:29.357Z,6.30
2018-04-27T04:54:33.749Z,6.30
2018-04-27T04:59:37.256Z,6.30
2018-04-27T05:04:41.475Z,6.40
2018-04-27T05:09:45.674Z,6.50
2018-04-27T05:24:59.021Z,7.30
2018-04-27T05:30:02.107Z,8.10
2018-04-27T05:50:18.468Z,8.80
2018-04-27T05:55:22.692Z,8.90
2018-04-27T06:15:40.574Z,9.90
2018-04-27T06:20:44.068Z,10.20
2018-04-27T06:30:52.375Z,10.60
2018-04-27T06:46:04.327Z,11.00
2018-04-27T06:51:08.207Z,11.20
2018-04-27T07:01:16.128Z,11.60
2018-04-27T07:06:19.206Z,11.90
2018-04-27T07:11:22.296Z,11.90
2018-04-27T07:16:25.793Z,12.10
2018-04-27T07:21:29.287Z,12.20
2018-04-27T07:26:33.138Z,12.40
2018-04-27T07:31:36.238Z,12.50
2018-04-27T07:36:40.088Z,13.10
2018-04-27T07:41:43.950Z,13.50
2018-04-27T07:46:47.432Z,14.10
2018-04-27T07:51:50.530Z,14.00
2018-04-27T07:56:53.627Z,14.20
2018-04-27T08:01:57.880Z,14.50
2018-04-27T08:07:02.114Z,15.40
2018-04-27T08:12:06.719Z,15.90
2018-04-27T08:17:09.806Z,16.40
2018-04-27T08:22:12.899Z,16.60
2018-04-27T08:27:16.395Z,17.60
2018-04-27T08:37:24.315Z,16.30
2018-04-27T08:42:28.170Z,16.50
2018-04-27T08:57:40.147Z,16.90
2018-04-27T09:02:43.295Z,17.00
2018-04-27T09:17:56.387Z,16.70
2018-04-27T09:22:59.511Z,17.70
2018-04-27T09:28:03.382Z,17.70
2018-04-27T09:33:07.990Z,17.80
2018-04-27T09:43:16.723Z,17.90
2018-04-27T09:48:20.963Z,18.10
2018-04-27T10:03:34.438Z,17.50
2018-04-27T10:13:42.395Z,17.00
2018-04-27T10:18:46.619Z,17.40
2018-04-27T10:23:49.730Z,17.10
2018-04-27T10:28:53.965Z,17.20
2018-04-27T10:39:02.266Z,17.90
2018-04-27T10:59:19.176Z,17.70
2018-04-27T11:04:22.287Z,17.40
2018-04-27T11:24:39.492Z,17.40
2018-04-27T11:34:47.410Z,17.20
2018-04-27T11:55:04.567Z,17.30
2018-04-27T12:05:12.101Z,18.00
2018-04-27T12:20:26.140Z,18.10
2018-04-27T12:30:34.403Z,18.20
2018-04-27T12:35:37.507Z,18.20
2018-04-27T12:40:40.636Z,18.30
2018-04-27T12:45:44.143Z,18.40
2018-04-27T12:50:47.250Z,18.10
2018-04-27T12:55:50.360Z,18.00
2018-04-27T13:00:54.228Z,17.90
2018-04-27T13:05:57.731Z,18.20
2018-04-27T13:11:01.587Z,18.40
2018-04-27T13:16:05.123Z,18.20
2018-04-27T13:21:08.219Z,18.30
2018-04-27T13:26:11.324Z,18.30
2018-04-27T13:31:15.959Z,18.40
2018-04-27T13:56:37.643Z,18.90
2018-04-27T14:06:45.195Z,18.80
2018-04-27T14:16:53.548Z,18.80
2018-04-27T14:21:57.595Z,18.80
2018-04-27T14:37:10.808Z,18.90
2018-04-27T14:47:19.851Z,19.00
2018-04-27T14:57:27.803Z,19.00
2018-04-27T15:12:42.592Z,19.20
2018-04-27T15:33:00.619Z,19.60
2018-04-27T15:38:05.215Z,19.50
2018-04-27T15:58:21.622Z,19.40
2018-04-27T16:03:24.718Z,19.30
2018-04-27T16:08:28.223Z,19.40
2018-04-27T16:18:58.017Z,19.50
2018-04-27T16:24:02.244Z,19.60
2018-04-27T16:29:09.256Z,19.40
2018-04-27T16:34:14.388Z,19.40
2018-04-27T16:39:17.506Z,19.20
2018-04-27T16:44:21.367Z,19.20
2018-04-27T16:54:28.884Z,19.20
2018-04-27T16:59:32.390Z,19.10
2018-04-27T17:04:35.484Z,19.10
2018-04-27T17:09:39.332Z,19.10
2018-04-27T17:14:42.846Z,18.90
2018-04-27T17:19:47.455Z,18.90
2018-04-27T17:24:51.719Z,18.70
2018-04-27T17:29:55.611Z,18.60
2018-04-27T17:34:59.559Z,18.50
2018-04-27T17:45:08.234Z,18.40
2018-04-27T17:50:11.759Z,18.30
2018-04-27T18:00:19.318Z,18.10
2018-04-27T18:05:23.163Z,18.10
2018-04-27T18:10:27.027Z,18.00
2018-04-27T18:15:31.264Z,17.90
2018-04-27T18:30:44.150Z,17.50
2018-04-27T18:35:47.635Z,17.30
2018-04-27T18:40:50.724Z,17.10
2018-04-27T18:45:54.590Z,17.00
2018-04-27T18:50:58.064Z,16.80
2018-04-27T18:56:01.163Z,16.60
2018-04-27T19:06:09.108Z,16.20
2018-04-27T19:11:12.614Z,16.00
2018-04-27T19:16:16.478Z,15.90
2018-04-27T19:21:21.083Z,15.70
2018-04-27T19:26:25.584Z,15.60
2018-04-27T19:31:28.668Z,15.50
2018-04-27T19:36:32.902Z,15.40
2018-04-27T19:41:36.427Z,15.30
2018-04-27T19:46:41.037Z,15.30
2018-04-27T19:51:44.579Z,15.40
2018-04-27T19:56:48.455Z,15.40
2018-04-27T20:01:51.960Z,15.40
2018-04-27T20:06:57.099Z,15.40
2018-04-27T20:12:00.595Z,15.40
2018-04-27T20:17:05.223Z,15.40
2018-04-27T20:22:20.546Z,15.20
2018-04-27T20:27:46.288Z,15.10
2018-04-27T20:32:50.130Z,14.90
2018-04-27T20:38:02.486Z,14.70
2018-04-27T20:43:11.299Z,14.70
2018-04-27T20:53:19.567Z,14.60
2018-04-27T21:03:28.671Z,14.50
2018-04-27T21:13:36.247Z,14.50
2018-04-27T21:23:44.179Z,14.60
2018-04-27T21:28:48.414Z,14.70
2018-04-27T21:33:57.163Z,14.70
2018-04-27T21:39:11.351Z,14.70
2018-04-27T21:44:15.365Z,14.70
2018-04-27T21:54:25.434Z,14.60
2018-04-27T21:59:42.846Z,14.60
2018-04-27T22:04:45.971Z,14.60
2018-04-27T22:09:49.838Z,14.60
2018-04-27T22:14:54.463Z,14.60
2018-04-27T22:30:32.111Z,14.40
2018-04-27T22:51:04.351Z,14.20
2018-04-27T22:56:07.836Z,14.20
2018-04-27T23:01:13.178Z,14.10
2018-04-27T23:06:17.043Z,14.10
2018-04-27T23:11:23.909Z,14.00
2018-04-27T23:16:27.855Z,13.90
2018-04-27T23:27:11.302Z,13.80
2018-04-27T23:42:26.757Z,13.80
2018-04-27T23:47:30.999Z,13.80
2018-04-27T23:52:34.858Z,13.90
2018-04-27T23:57:37.951Z,13.90
